Time;durP1;ratioP1;P1;durP2;ratioP2;P2;SDS_P1;SDS_P2;PMS_P1;PMS_P2;Temp;Humidity;BMP_temperature;BMP_pressure;BME280_temperature;BME280_humidity;BME280_pressure;Samples;Min_cycle;Max_cycle;Signal;HPM_P1;HPM_P2
2023/08/15 00:01:27;;;;;;;14.50;10.63;;;17.20;99.90;;;;;;5115700;28;20035;-64
2023/08/15 00:03:53;;;;;;;18.73;12.18;;;17.20;99.90;;;;;;5115620;28;20035;-64
2023/08/15 00:06:20;;;;;;;18.75;12.13;;;17.20;99.90;;;;;;5115815;28;20034;-64
2023/08/15 00:08:53;;;;;;;16.63;12.02;;;17.30;99.90;;;;;;5114120;28;20024;-64
2023/08/15 00:11:20;;;;;;;14.50;11.30;;;17.30;99.90;;;;;;5115480;28;20024;-64
2023/08/15 00:13:46;;;;;;;14.27;10.77;;;17.20;99.90;;;;;;5097270;28;20039;-64
2023/08/15 00:16:12;;;;;;;14.43;11.40;;;17.20;99.90;;;;;;5113481;28;20030;-64
2023/08/15 00:18:38;;;;;;;12.70;10.88;;;17.20;99.90;;;;;;5114094;28;20482;-64
2023/08/15 00:21:04;;;;;;;13.35;11.27;;;17.20;99.90;;;;;;5114135;28;20111;-64
2023/08/15 00:23:30;;;;;;;15.77;11.88;;;17.20;99.90;;;;;;5115288;28;20028;-64
2023/08/15 00:25:56;;;;;;;12.18;10.07;;;17.20;99.90;;;;;;5114118;28;20059;-64
2023/08/15 00:28:22;;;;;;;14.65;11.40;;;17.30;99.90;;;;;;5115351;28;20484;-64
2023/08/15 00:30:49;;;;;;;11.70;10.45;;;17.10;99.90;;;;;;5115102;28;20020;-64
2023/08/15 00:33:15;;;;;;;15.68;11.00;;;17.00;99.90;;;;;;5115109;28;20039;-64
2023/08/15 00:35:43;;;;;;;15.52;11.13;;;17.00;99.90;;;;;;5113675;28;20024;-64
2023/08/15 00:38:09;;;;;;;13.45;10.63;;;17.00;99.90;;;;;;5113865;28;20373;-64
2023/08/15 00:40:39;;;;;;;12.25;10.75;;;16.90;99.90;;;;;;5115331;28;20027;-64
2023/08/15 00:43:05;;;;;;;14.68;10.73;;;16.90;99.90;;;;;;5115172;28;20300;-64
2023/08/15 00:45:34;;;;;;;14.88;11.10;;;16.90;99.90;;;;;;5113801;28;20035;-64
2023/08/15 00:48:00;;;;;;;16.00;10.60;;;16.90;99.90;;;;;;5114153;28;20634;-64
2023/08/15 00:50:26;;;;;;;17.00;11.80;;;16.90;99.90;;;;;;5114922;28;20119;-64
2023/08/15 00:52:52;;;;;;;13.85;10.88;;;16.90;99.90;;;;;;5113663;28;20024;-64
2023/08/15 00:55:18;;;;;;;13.90;10.38;;;16.90;99.90;;;;;;5113530;28;20023;-64
2023/08/15 00:57:45;;;;;;;14.02;11.18;;;16.90;99.90;;;;;;5114733;28;20027;-64
2023/08/15 01:00:11;;;;;;;15.00;11.32;;;17.00;99.90;;;;;;5113471;28;20071;-64
2023/08/15 01:02:38;;;;;;;14.38;10.35;;;17.00;99.90;;;;;;5113636;28;20106;-64
2023/08/15 01:05:06;;;;;;;15.18;10.77;;;16.90;99.90;;;;;;5114936;28;20076;-64
2023/08/15 01:07:33;;;;;;;12.90;10.43;;;16.80;99.90;;;;;;5115017;28;20392;-64
2023/08/15 01:09:59;;;;;;;17.88;11.48;;;16.90;99.90;;;;;;5113435;28;20032;-64
2023/08/15 01:12:34;;;;;;;12.80;10.85;;;16.80;99.90;;;;;;5113138;28;20031;-64
2023/08/15 01:15:06;;;;;;;12.38;10.35;;;16.80;99.90;;;;;;5114804;28;20677;-64
2023/08/15 01:17:43;;;;;;;13.05;9.88;;;16.70;99.90;;;;;;5114787;28;20050;-64
2023/08/15 01:20:14;;;;;;;14.63;10.55;;;16.70;99.90;;;;;;5113550;28;20032;-64
2023/08/15 01:22:43;;;;;;;;;;;16.70;99.90;;;;;;5115147;28;20036;-64
2023/08/15 01:25:09;;;;;;;14.18;10.25;;;16.70;99.90;;;;;;5114773;28;19915;-64
2023/08/15 01:27:35;;;;;;;15.23;10.95;;;16.60;99.90;;;;;;5117474;28;20031;-64
2023/08/15 01:30:01;;;;;;;17.83;14.45;;;16.60;99.90;;;;;;5118658;28;20118;-64
2023/08/15 01:32:48;;;;;;;17.13;12.55;;;16.60;99.90;;;;;;5117237;28;20504;-64
2023/08/15 01:35:21;;;;;;;13.98;11.50;;;16.60;99.90;;;;;;5118444;28;20474;-64
2023/08/15 01:37:57;;;;;;;19.00;13.27;;;16.60;99.90;;;;;;5117363;28;20024;-64
2023/08/15 01:40:26;;;;;;;14.15;11.88;;;16.60;99.90;;;;;;5118651;28;20081;-64
2023/08/15 01:42:55;;;;;;;20.08;13.75;;;16.50;99.90;;;;;;5118830;28;20035;-64
2023/08/15 01:45:25;;;;;;;18.20;14.02;;;16.60;99.90;;;;;;5118529;28;20024;-64
2023/08/15 01:47:54;;;;;;;18.70;14.23;;;16.70;99.90;;;;;;5118421;28;20024;-64
2023/08/15 01:50:20;;;;;;;19.00;13.45;;;16.60;99.90;;;;;;5118344;28;20058;-64
2023/08/15 01:52:47;;;;;;;16.58;12.43;;;16.40;99.90;;;;;;5118411;28;20059;-64
2023/08/15 01:55:13;;;;;;;22.30;14.80;;;16.40;99.90;;;;;;5117865;28;20058;-64
2023/08/15 01:57:39;;;;;;;17.88;13.52;;;16.50;99.90;;;;;;5118552;28;20027;-64
2023/08/15 02:00:06;;;;;;;17.65;13.55;;;16.40;99.90;;;;;;5116843;28;20058;-64
2023/08/15 02:02:41;;;;;;;18.27;14.25;;;16.40;99.90;;;;;;5117130;28;20035;-64
2023/08/15 02:05:07;;;;;;;17.13;14.15;;;16.40;99.90;;;;;;5116494;28;20032;-64
2023/08/15 02:07:33;;;;;;;18.25;14.00;;;16.40;99.90;;;;;;5117949;28;20473;-64
2023/08/15 02:09:59;;;;;;;19.80;14.48;;;16.40;99.90;;;;;;5116398;28;20115;-64
2023/08/15 02:12:26;;;;;;;22.15;15.63;;;16.30;99.90;;;;;;5118044;28;20031;-64
2023/08/15 02:14:52;;;;;;;18.77;14.43;;;16.20;99.90;;;;;;5099578;28;20032;-64
2023/08/15 02:17:18;;;;;;;20.73;14.25;;;16.30;99.90;;;;;;5117861;28;20115;-64
2023/08/15 02:19:44;;;;;;;21.92;14.90;;;16.30;99.90;;;;;;5116553;28;20038;-64
2023/08/15 02:22:10;;;;;;;22.95;15.75;;;16.20;99.90;;;;;;5117524;28;20094;-64
2023/08/15 02:24:36;;;;;;;24.33;17.52;;;16.30;99.90;;;;;;5116602;28;20035;-64
2023/08/15 02:27:02;;;;;;;20.75;16.50;;;16.30;99.90;;;;;;5116359;28;20036;-64
2023/08/15 02:29:28;;;;;;;18.05;12.35;;;16.30;99.90;;;;;;5099057;28;20123;-64
2023/08/15 02:31:54;;;;;;;15.55;12.77;;;16.30;99.90;;;;;;5099460;28;20110;-64
2023/08/15 02:34:20;;;;;;;19.17;13.55;;;16.20;99.90;;;;;;5116574;28;20168;-64
2023/08/15 02:36:46;;;;;;;18.83;13.52;;;16.10;99.90;;;;;;5099028;28;20023;-64
2023/08/15 02:39:16;;;;;;;16.90;13.32;;;16.00;99.90;;;;;;5115533;28;20481;-64
2023/08/15 02:41:43;;;;;;;20.87;13.93;;;16.00;99.90;;;;;;5099168;28;20034;-64
2023/08/15 02:44:09;;;;;;;19.23;14.05;;;16.00;99.90;;;;;;5117255;27;20020;-64
2023/08/15 02:46:35;;;;;;;14.85;12.70;;;15.90;99.90;;;;;;5115997;28;20438;-64
2023/08/15 02:49:01;;;;;;;17.58;14.32;;;15.90;99.90;;;;;;5117286;28;20077;-64
2023/08/15 02:51:27;;;;;;;19.35;14.02;;;16.00;99.90;;;;;;5115718;28;20038;-64
2023/08/15 02:53:53;;;;;;;19.35;13.40;;;15.90;99.90;;;;;;5117539;28;20023;-64
2023/08/15 02:56:19;;;;;;;14.95;13.15;;;15.80;99.90;;;;;;5115827;28;20069;-64
2023/08/15 02:58:45;;;;;;;14.98;12.65;;;15.80;99.90;;;;;;5116702;28;20395;-64
2023/08/15 03:01:11;;;;;;;15.68;12.38;;;15.70;99.90;;;;;;5117092;28;20084;-64
2023/08/15 03:03:37;;;;;;;18.02;13.80;;;15.80;99.90;;;;;;5098686;28;20448;-64
2023/08/15 03:06:03;;;;;;;18.52;13.13;;;15.80;99.90;;;;;;5115530;28;20027;-64
2023/08/15 03:08:30;;;;;;;18.77;13.68;;;15.80;99.90;;;;;;5115403;28;20038;-64
2023/08/15 03:10:58;;;;;;;19.38;13.45;;;15.80;99.90;;;;;;5115387;28;20034;-64
2023/08/15 03:13:25;;;;;;;25.13;16.13;;;15.80;99.90;;;;;;5098442;28;20076;-64
2023/08/15 03:15:57;;;;;;;19.88;13.93;;;15.80;99.90;;;;;;5115477;28;20027;-64
2023/08/15 03:18:25;;;;;;;19.15;12.55;;;15.80;99.90;;;;;;5115448;28;20028;-64
2023/08/15 03:20:56;;;;;;;19.98;12.85;;;15.70;99.90;;;;;;5115402;28;20036;-64
2023/08/15 03:23:24;;;;;;;20.13;12.65;;;15.70;99.90;;;;;;5115400;28;20031;-64
2023/08/15 03:26:00;;;;;;;18.65;12.15;;;15.70;99.90;;;;;;5115176;28;20100;-64
2023/08/15 03:28:30;;;;;;;15.48;12.10;;;15.70;99.90;;;;;;5115426;28;20043;-64
2023/08/15 03:30:57;;;;;;;15.18;12.18;;;15.70;99.90;;;;;;5115014;28;20043;-64
2023/08/15 03:33:26;;;;;;;17.10;12.88;;;15.70;99.90;;;;;;5114985;28;20113;-64
2023/08/15 03:35:52;;;;;;;18.55;14.20;;;15.70;99.90;;;;;;5116179;28;20023;-64
2023/08/15 03:38:21;;;;;;;19.10;14.32;;;15.60;99.90;;;;;;5114922;28;20034;-64
2023/08/15 03:40:49;;;;;;;15.70;12.93;;;15.60;99.90;;;;;;5114805;28;20035;-64
2023/08/15 03:43:15;;;;;;;19.23;14.13;;;15.70;99.90;;;;;;5116213;28;20134;-64
2023/08/15 03:45:42;;;;;;;23.77;13.80;;;15.80;99.90;;;;;;5114618;28;20036;-64
2023/08/15 03:48:09;;;;;;;24.38;14.65;;;15.80;99.90;;;;;;5114813;28;20050;-64
2023/08/15 03:50:37;;;;;;;21.65;14.45;;;15.70;99.90;;;;;;5113653;28;20406;-64
2023/08/15 03:53:03;;;;;;;23.25;15.02;;;15.70;99.90;;;;;;5114537;28;20112;-64
2023/08/15 03:55:30;;;;;;;21.77;14.05;;;15.70;99.90;;;;;;5114498;28;20023;-64
2023/08/15 03:57:56;;;;;;;19.17;13.07;;;15.60;99.90;;;;;;5115798;28;20034;-64
2023/08/15 04:00:22;;;;;;;23.33;13.95;;;15.60;99.90;;;;;;5114220;28;20054;-64
2023/08/15 04:02:48;;;;;;;21.08;12.70;;;15.60;99.90;;;;;;5115855;28;20036;-64
2023/08/15 04:05:15;;;;;;;22.60;12.07;;;15.60;99.90;;;;;;5115582;28;20035;-64
2023/08/15 04:07:41;;;;;;;39.15;34.55;;;15.50;99.90;;;;;;5114364;28;20032;-64
2023/08/15 04:10:07;;;;;;;35.20;29.20;;;15.60;99.90;;;;;;5115407;28;20039;-64
2023/08/15 04:12:36;;;;;;;28.92;23.38;;;15.60;99.90;;;;;;5115425;28;20030;-64
2023/08/15 04:15:03;;;;;;;33.67;17.27;;;15.70;99.90;;;;;;5115684;28;20077;-64
2023/08/15 04:17:29;;;;;;;20.85;14.85;;;15.60;99.90;;;;;;5113890;28;20019;-64
2023/08/15 04:19:56;;;;;;;19.92;15.02;;;15.60;99.90;;;;;;5097403;28;20231;-64
2023/08/15 04:22:21;;;;;;;21.00;15.82;;;15.60;99.90;;;;;;5114294;28;20054;-64
2023/08/15 04:24:47;;;;;;;31.73;23.25;;;15.60;99.90;;;;;;5115438;28;20031;-64
2023/08/15 04:27:13;;;;;;;80.50;70.90;;;15.70;99.90;;;;;;5115438;28;20640;-64
2023/08/15 04:29:39;;;;;;;60.58;53.60;;;15.70;99.90;;;;;;5114013;28;20504;-64
2023/08/15 04:32:07;;;;;;;76.22;68.15;;;15.70;99.90;;;;;;5113913;28;20047;-64
2023/08/15 04:34:33;;;;;;;114.70;102.88;;;15.80;99.90;;;;;;5115173;28;20027;-64
2023/08/15 04:36:59;;;;;;;90.57;78.82;;;15.70;99.90;;;;;;5097097;28;20449;-64
2023/08/15 04:39:27;;;;;;;68.93;53.95;;;15.80;99.90;;;;;;5113890;28;20028;-64
2023/08/15 04:41:53;;;;;;;70.35;61.13;;;15.90;99.90;;;;;;5113956;28;20016;-64
2023/08/15 04:44:19;;;;;;;82.45;64.78;;;15.90;99.90;;;;;;5115237;28;20033;-64
2023/08/15 04:46:46;;;;;;;83.15;74.32;;;15.90;99.90;;;;;;5113816;28;20114;-64
2023/08/15 04:49:12;;;;;;;105.05;94.30;;;16.00;99.90;;;;;;5113624;28;20032;-64
2023/08/15 04:51:38;;;;;;;84.20;71.30;;;16.00;99.90;;;;;;5113498;28;20086;-64
2023/08/15 04:54:04;;;;;;;88.32;73.80;;;16.20;99.90;;;;;;5114948;28;20453;-64
2023/08/15 04:56:29;;;;;;;80.78;71.03;;;16.20;99.90;;;;;;5113492;28;20065;-64
2023/08/15 04:58:55;;;;;;;79.57;70.80;;;16.20;99.90;;;;;;5113385;28;20185;-64
2023/08/15 05:01:21;;;;;;;71.07;62.17;;;16.20;99.90;;;;;;5114595;28;20404;-64
2023/08/15 05:03:47;;;;;;;78.35;62.10;;;16.20;99.90;;;;;;5113610;28;20028;-64
2023/08/15 05:06:13;;;;;;;53.03;41.38;;;16.20;99.90;;;;;;5113438;28;20020;-64
2023/08/15 05:08:39;;;;;;;53.30;41.50;;;16.40;99.90;;;;;;5113866;28;20356;-64
2023/08/15 05:11:05;;;;;;;39.92;31.60;;;16.50;99.90;;;;;;5113515;28;20461;-64
2023/08/15 05:13:31;;;;;;;49.95;35.25;;;16.50;99.90;;;;;;5097014;28;20020;-64
2023/08/15 05:15:57;;;;;;;44.33;33.95;;;16.60;99.90;;;;;;5113808;28;20568;-64
2023/08/15 05:18:23;;;;;;;48.53;31.33;;;16.60;99.90;;;;;;5113426;28;20549;-64
2023/08/15 05:20:49;;;;;;;30.58;23.98;;;16.70;99.90;;;;;;5113569;28;20039;-64
2023/08/15 05:23:15;;;;;;;26.67;18.38;;;16.70;99.90;;;;;;5114344;28;20028;-64
2023/08/15 05:25:43;;;;;;;30.70;16.73;;;16.80;99.90;;;;;;5111782;28;20028;-64
2023/08/15 05:28:10;;;;;;;29.35;13.82;;;17.00;99.90;;;;;;5114115;28;20389;-64
2023/08/15 05:30:37;;;;;;;29.30;12.90;;;17.10;99.90;;;;;;5109024;28;20497;-64
2023/08/15 05:33:06;;;;;;;23.25;12.65;;;17.30;99.90;;;;;;5114653;28;20026;-64
2023/08/15 05:35:33;;;;;;;19.98;11.40;;;17.50;99.90;;;;;;5115229;28;20096;-64
2023/08/15 05:37:59;;;;;;;18.33;12.80;;;17.70;99.90;;;;;;5112982;28;20016;-64
2023/08/15 05:40:26;;;;;;;25.48;12.95;;;17.80;99.90;;;;;;5113840;28;20415;-64
2023/08/15 05:42:52;;;;;;;20.45;12.60;;;17.90;99.90;;;;;;5114687;28;20020;-64
2023/08/15 05:45:18;;;;;;;25.27;13.32;;;18.10;99.90;;;;;;5114261;28;20062;-64
2023/08/15 05:47:44;;;;;;;20.48;13.38;;;18.20;99.90;;;;;;5113154;28;20391;-64
2023/08/15 05:50:10;;;;;;;28.25;13.48;;;18.40;99.90;;;;;;5114314;28;20027;-64
2023/08/15 05:52:36;;;;;;;22.08;11.55;;;18.50;99.90;;;;;;5112137;28;20107;-63
2023/08/15 05:55:02;;;;;;;17.45;10.40;;;18.60;99.90;;;;;;5113545;28;20082;-64
2023/08/15 05:57:27;;;;;;;19.25;10.90;;;18.80;99.90;;;;;;5113609;28;20035;-64
2023/08/15 05:59:53;;;;;;;24.00;12.20;;;19.00;99.90;;;;;;5111656;28;20044;-64
2023/08/15 06:02:20;;;;;;;22.65;10.85;;;19.10;99.90;;;;;;5105957;28;20799;-64
2023/08/15 06:04:46;;;;;;;18.40;9.95;;;19.20;99.90;;;;;;5093691;28;20127;-65
2023/08/15 06:07:14;;;;;;;197.82;37.03;;;19.30;99.90;;;;;;5091945;28;20115;-65
2023/08/15 06:09:40;;;;;;;26.33;10.80;;;19.40;99.90;;;;;;5102237;28;20114;-67
2023/08/15 06:12:07;;;;;;;19.73;11.70;;;19.60;99.90;;;;;;5113922;28;20031;-67
2023/08/15 06:14:34;;;;;;;48.38;14.27;;;19.70;99.90;;;;;;5114585;28;20020;-68
2023/08/15 06:17:00;;;;;;;21.58;9.95;;;19.90;99.90;;;;;;5105764;28;20032;-68
2023/08/15 06:19:26;;;;;;;25.55;11.65;;;20.20;99.90;;;;;;5117599;28;20023;-68
2023/08/15 06:21:52;;;;;;;22.27;10.35;;;20.20;99.90;;;;;;5116144;27;20102;-68
2023/08/15 06:24:18;;;;;;;18.25;10.48;;;20.40;99.90;;;;;;5107313;28;20100;-68
2023/08/15 06:26:44;;;;;;;23.73;13.43;;;20.60;99.90;;;;;;5107935;28;20028;-68
2023/08/15 06:29:09;;;;;;;28.55;11.90;;;20.70;99.90;;;;;;5109544;28;20031;-68
2023/08/15 06:31:36;;;;;;;24.13;10.75;;;20.90;99.90;;;;;;5107091;28;20028;-68
2023/08/15 06:34:03;;;;;;;18.38;10.57;;;21.00;99.90;;;;;;5112532;28;20111;-68
2023/08/15 06:36:29;;;;;;;33.80;12.32;;;21.20;99.90;;;;;;5117450;28;20045;-68
2023/08/15 06:38:55;;;;;;;27.10;12.00;;;21.40;99.90;;;;;;5116198;28;20477;-68
2023/08/15 06:41:21;;;;;;;27.52;11.43;;;21.60;99.90;;;;;;5117380;28;20449;-68
2023/08/15 06:43:49;;;;;;;23.20;10.80;;;21.70;99.90;;;;;;5115183;28;20427;-67
2023/08/15 06:46:15;;;;;;;27.20;11.25;;;21.80;99.90;;;;;;5116851;28;20023;-68
2023/08/15 06:48:41;;;;;;;30.45;15.52;;;22.00;99.90;;;;;;5116855;28;20019;-68
2023/08/15 06:51:07;;;;;;;36.55;13.82;;;21.90;99.90;;;;;;5117254;28;20456;-68
2023/08/15 06:53:34;;;;;;;26.42;11.63;;;22.00;99.90;;;;;;5117853;28;20417;-67
2023/08/15 06:55:59;;;;;;;19.75;10.90;;;22.30;99.90;;;;;;5117369;28;20024;-67
2023/08/15 06:58:26;;;;;;;18.15;11.02;;;22.40;99.90;;;;;;5116895;28;20030;-67
2023/08/15 07:00:52;;;;;;;28.70;12.60;;;22.70;99.90;;;;;;5116470;28;20039;-67
2023/08/15 07:03:18;;;;;;;29.40;14.05;;;22.80;99.90;;;;;;5116975;28;20042;-67
2023/08/15 07:05:45;;;;;;;24.65;12.25;;;23.10;98.60;;;;;;5117271;28;20028;-68
2023/08/15 07:08:13;;;;;;;25.77;14.65;;;23.40;98.80;;;;;;5117334;28;20055;-68
2023/08/15 07:10:39;;;;;;;39.28;14.23;;;23.70;98.70;;;;;;5117272;28;20032;-68
2023/08/15 07:13:05;;;;;;;31.33;13.82;;;24.10;98.50;;;;;;5117267;28;20092;-68
2023/08/15 07:15:31;;;;;;;31.67;11.70;;;24.30;96.20;;;;;;5115112;28;20032;-68
2023/08/15 07:17:58;;;;;;;22.58;11.63;;;24.60;95.10;;;;;;5115532;28;20438;-68
2023/08/15 07:20:25;;;;;;;26.50;11.52;;;24.70;93.40;;;;;;5112221;28;20034;-68
2023/08/15 07:22:51;;;;;;;27.02;11.30;;;25.00;92.70;;;;;;5111446;28;20080;-68
2023/08/15 07:25:17;;;;;;;22.85;11.43;;;25.30;91.20;;;;;;5111284;28;20031;-68
2023/08/15 07:27:43;;;;;;;24.45;12.55;;;25.70;88.10;;;;;;5114711;28;20031;-67
2023/08/15 07:30:12;;;;;;;19.05;11.20;;;25.70;85.70;;;;;;5114820;28;20027;-67
2023/08/15 07:32:38;;;;;;;21.98;12.07;;;26.10;85.80;;;;;;5116470;28;20028;-67
2023/08/15 07:35:05;;;;;;;23.80;12.63;;;26.60;84.90;;;;;;5116761;28;20028;-68
2023/08/15 07:37:32;;;;;;;20.42;11.23;;;26.90;84.70;;;;;;5116206;28;20034;-68
2023/08/15 07:40:05;;;;;;;21.00;11.15;;;27.00;81.50;;;;;;5116266;28;20047;-68
2023/08/15 07:42:32;;;;;;;16.77;10.40;;;27.30;79.80;;;;;;5116458;28;20032;-68
2023/08/15 07:44:58;;;;;;;17.98;10.27;;;27.40;81.70;;;;;;5115964;28;20062;-68
2023/08/15 07:47:24;;;;;;;22.38;10.75;;;27.60;83.60;;;;;;5111530;28;20413;-68
2023/08/15 07:50:14;;;;;;;18.27;9.30;;;28.00;82.40;;;;;;5113661;28;20118;-68
2023/08/15 07:52:41;;;;;;;20.35;9.48;;;28.60;78.50;;;;;;5115774;28;20031;-68
2023/08/15 07:55:07;;;;;;;15.70;9.80;;;29.00;76.50;;;;;;5116247;28;20020;-68
2023/08/15 07:57:33;;;;;;;17.85;8.70;;;28.90;76.80;;;;;;5115559;28;20020;-68
2023/08/15 07:59:59;;;;;;;19.65;9.52;;;28.90;70.20;;;;;;5115094;28;20508;-68
2023/08/15 08:02:25;;;;;;;17.95;8.93;;;29.10;69.40;;;;;;5114524;28;20028;-68
2023/08/15 08:04:55;;;;;;;17.48;9.65;;;29.10;70.30;;;;;;5115498;28;20069;-68
2023/08/15 08:07:21;;;;;;;16.52;8.80;;;29.60;67.10;;;;;;5115536;28;20019;-68
2023/08/15 08:09:47;;;;;;;14.65;8.65;;;29.80;61.90;;;;;;5115421;28;20031;-68
2023/08/15 08:12:13;;;;;;;17.77;8.50;;;29.60;63.90;;;;;;5112437;28;20342;-68
2023/08/15 08:14:39;;;;;;;15.73;8.05;;;29.90;65.90;;;;;;5109575;28;20024;-68
2023/08/15 08:17:05;;;;;;;14.82;8.43;;;30.10;62.70;;;;;;5106629;28;20087;-68
2023/08/15 08:19:32;;;;;;;12.18;9.05;;;30.50;63.70;;;;;;5115882;28;20030;-68
2023/08/15 08:21:58;;;;;;;10.50;9.40;;;30.60;63.90;;;;;;5115634;28;20076;-68
2023/08/15 08:24:24;;;;;;;23.33;9.38;;;30.30;62.90;;;;;;5112001;28;20501;-68
2023/08/15 08:26:50;;;;;;;14.90;8.90;;;30.40;63.10;;;;;;5114999;28;20021;-69
2023/08/15 08:29:16;;;;;;;19.25;9.45;;;31.10;62.00;;;;;;5115119;28;20024;-68
2023/08/15 08:31:42;;;;;;;14.43;8.15;;;30.90;61.70;;;;;;5112072;28;20049;-68
2023/08/15 08:34:13;;;;;;;18.13;8.93;;;30.70;59.50;;;;;;5112903;28;20051;-68
2023/08/15 08:36:42;;;;;;;18.67;9.15;;;30.40;60.60;;;;;;5114909;28;20118;-69
2023/08/15 08:39:11;;;;;;;18.35;9.40;;;30.70;59.80;;;;;;5114449;28;20342;-69
2023/08/15 08:41:38;;;;;;;19.70;9.45;;;30.70;58.50;;;;;;5114136;28;20038;-69
2023/08/15 08:44:08;;;;;;;18.67;10.05;;;30.70;58.10;;;;;;5111068;28;20077;-69
2023/08/15 08:46:34;;;;;;;32.88;9.98;;;30.50;59.50;;;;;;5113199;28;20032;-69
2023/08/15 08:49:00;;;;;;;21.52;9.10;;;31.30;56.80;;;;;;5113360;28;20038;-69
2023/08/15 08:51:27;;;;;;;17.80;10.32;;;31.70;54.50;;;;;;5115312;28;20020;-69
2023/08/15 08:53:54;;;;;;;14.68;8.98;;;31.80;56.00;;;;;;5115395;28;20027;-69
2023/08/15 08:56:25;;;;;;;9.00;6.75;;;32.60;55.00;;;;;;5113493;28;20032;-69
2023/08/15 08:59:01;;;;;;;13.90;6.63;;;32.70;51.00;;;;;;5093982;28;20812;-68
2023/08/15 09:01:31;;;;;;;22.45;10.38;;;32.30;48.90;;;;;;5095122;28;20055;-69
2023/08/15 09:03:57;;;;;;;15.05;8.60;;;31.90;49.10;;;;;;5105808;28;20039;-69
2023/08/15 09:06:27;;;;;;;12.18;6.30;;;31.90;52.00;;;;;;5108892;28;20062;-68
2023/08/15 09:08:54;;;;;;;13.43;6.60;;;31.10;48.80;;;;;;5106582;28;20023;-68
2023/08/15 09:11:23;;;;;;;9.98;6.55;;;30.20;50.90;;;;;;5115171;28;20023;-68
2023/08/15 09:13:53;;;;;;;9.15;6.65;;;30.90;51.80;;;;;;5115367;28;20077;-68
2023/08/15 09:16:18;;;;;;;17.85;7.30;;;30.40;50.00;;;;;;5114853;28;20058;-68
2023/08/15 09:18:47;;;;;;;15.43;7.00;;;30.50;52.00;;;;;;5112653;28;20059;-68
2023/08/15 09:21:13;;;;;;;16.52;8.10;;;30.10;51.80;;;;;;5107347;28;20056;-69
2023/08/15 09:23:44;;;;;;;14.60;8.82;;;31.30;51.30;;;;;;5112334;28;20066;-68
2023/08/15 09:26:16;;;;;;;13.60;7.00;;;32.00;49.10;;;;;;5113491;28;20053;-68
2023/08/15 09:28:44;;;;;;;15.35;7.55;;;32.30;47.60;;;;;;5112500;28;20062;-69
2023/08/15 09:31:11;;;;;;;10.88;6.80;;;32.90;47.80;;;;;;5115183;28;20028;-69
2023/08/15 09:33:41;;;;;;;11.93;7.65;;;33.50;46.40;;;;;;5111851;28;20051;-68
2023/08/15 09:36:10;;;;;;;12.55;6.22;;;33.50;44.20;;;;;;5108345;28;20370;-68
2023/08/15 09:38:37;;;;;;;10.02;5.70;;;33.70;42.60;;;;;;5111285;28;20028;-68
2023/08/15 09:41:03;;;;;;;9.77;6.30;;;33.30;41.40;;;;;;5111566;28;20331;-69
2023/08/15 09:43:30;;;;;;;10.30;5.47;;;33.80;45.90;;;;;;5111356;28;20060;-68
2023/08/15 09:45:59;;;;;;;12.68;5.50;;;32.30;41.30;;;;;;5100098;28;20039;-68
2023/08/15 09:48:29;;;;;;;8.55;4.85;;;30.90;43.60;;;;;;5111861;28;20044;-69
2023/08/15 09:50:56;;;;;;;7.43;5.05;;;30.90;45.50;;;;;;5117968;28;20020;-68
2023/08/15 09:53:23;;;;;;;9.38;5.28;;;31.30;44.20;;;;;;5111844;28;20024;-69
2023/08/15 09:55:50;;;;;;;8.43;4.75;;;31.00;44.10;;;;;;5114459;28;20472;-69
2023/08/15 09:58:25;;;;;;;9.63;5.10;;;31.20;43.90;;;;;;5117005;28;20327;-68
2023/08/15 10:01:03;;;;;;;6.78;5.05;;;31.80;42.90;;;;;;5116666;28;20404;-69
2023/08/15 10:03:38;;;;;;;10.43;4.97;;;31.90;43.10;;;;;;5118148;28;20035;-69
2023/08/15 10:06:09;;;;;;;8.68;4.40;;;32.60;40.00;;;;;;5117831;28;20028;-68
2023/08/15 10:08:38;;;;;;;8.75;5.03;;;32.30;41.80;;;;;;5116412;28;20028;-68
2023/08/15 10:11:10;;;;;;;9.02;5.00;;;31.00;42.30;;;;;;5116896;28;20027;-68
2023/08/15 10:13:41;;;;;;;11.73;4.68;;;31.30;45.00;;;;;;5117627;28;20031;-68
2023/08/15 10:16:12;;;;;;;7.28;5.18;;;32.00;42.40;;;;;;5117562;28;20093;-68
2023/08/15 10:18:53;;;;;;;6.38;4.38;;;32.90;42.30;;;;;;5115803;28;20024;-68
2023/08/15 10:21:29;;;;;;;8.93;4.20;;;32.00;38.40;;;;;;5117016;28;20027;-68
2023/08/15 10:24:02;;;;;;;11.20;4.47;;;32.70;36.00;;;;;;5118272;28;20076;-68
2023/08/15 10:26:28;;;;;;;16.77;5.72;;;33.70;32.80;;;;;;5118549;28;20027;-69
2023/08/15 10:28:56;;;;;;;13.68;5.63;;;33.70;32.70;;;;;;5117606;28;20038;-69
2023/08/15 10:31:39;;;;;;;18.45;5.32;;;33.30;30.30;;;;;;5116658;28;20023;-68
2023/08/15 10:34:09;;;;;;;19.30;5.15;;;33.20;30.30;;;;;;5113005;28;20031;-68
2023/08/15 10:36:35;;;;;;;16.10;4.60;;;33.40;31.20;;;;;;5117182;28;20024;-68
2023/08/15 10:39:05;;;;;;;10.52;5.13;;;33.80;29.80;;;;;;5114267;28;20070;-69
2023/08/15 10:41:32;;;;;;;11.82;4.70;;;34.40;30.60;;;;;;5116440;28;20415;-69
2023/08/15 10:44:04;;;;;;;12.27;4.72;;;33.90;29.80;;;;;;5109338;28;20024;-68
2023/08/15 10:46:31;;;;;;;16.05;4.95;;;33.80;31.80;;;;;;5116495;28;20020;-68
2023/08/15 10:49:11;;;;;;;10.32;4.38;;;33.60;31.80;;;;;;5115273;28;20024;-68
2023/08/15 10:51:44;;;;;;;17.20;4.90;;;34.00;30.10;;;;;;5115000;28;20023;-68
2023/08/15 10:54:12;;;;;;;29.73;6.30;;;32.80;32.20;;;;;;5113481;27;20026;-68
2023/08/15 10:56:45;;;;;;;9.48;4.63;;;33.30;32.50;;;;;;5113323;27;20020;-68
2023/08/15 10:59:13;;;;;;;15.20;5.35;;;33.20;31.60;;;;;;5104755;28;20043;-68
2023/08/15 11:01:46;;;;;;;9.25;4.75;;;33.20;31.70;;;;;;5116498;28;20027;-68
2023/08/15 11:04:19;;;;;;;12.77;4.40;;;33.50;32.20;;;;;;5113081;28;20113;-68
2023/08/15 11:07:24;;;;;;;18.40;4.40;;;34.50;30.20;;;;;;5115994;28;20099;-68
2023/08/15 11:09:52;;;;;;;8.68;4.28;;;35.00;27.30;;;;;;5048886;28;20039;-69
2023/08/15 11:12:18;;;;;;;13.52;5.28;;;35.20;28.10;;;;;;5044575;28;20029;-69
2023/08/15 11:14:50;;;;;;;17.83;5.80;;;35.50;25.20;;;;;;5039922;28;20084;-68
2023/08/15 11:17:15;;;;;;;22.40;6.57;;;34.60;26.10;;;;;;5045473;28;20143;-69
2023/08/15 11:19:41;;;;;;;16.30;4.22;;;34.70;27.90;;;;;;5050996;28;20307;-69
2023/08/15 11:22:08;;;;;;;19.63;5.28;;;35.40;28.20;;;;;;5050827;28;20047;-69
2023/08/15 11:24:33;;;;;;;12.18;5.53;;;35.70;27.30;;;;;;5050194;28;20030;-69
2023/08/15 11:27:01;;;;;;;21.75;4.82;;;35.80;26.60;;;;;;5050109;28;20040;-69
2023/08/15 11:29:27;;;;;;;9.23;3.80;;;36.00;27.00;;;;;;5041950;28;20079;-68
2023/08/15 11:31:55;;;;;;;11.20;5.15;;;36.00;24.70;;;;;;5039975;28;20033;-69
2023/08/15 11:34:22;;;;;;;12.80;6.00;;;34.90;26.60;;;;;;5035395;28;20039;-68
2023/08/15 11:36:48;;;;;;;6.95;3.90;;;35.00;26.50;;;;;;5053149;28;20056;-70
2023/08/15 11:39:14;;;;;;;7.13;3.25;;;34.00;27.70;;;;;;5051453;28;20031;-71
2023/08/15 11:41:40;;;;;;;8.98;3.88;;;35.20;28.70;;;;;;5093350;28;20079;-70
2023/08/15 11:44:07;;;;;;;8.70;4.07;;;34.70;25.80;;;;;;5098418;28;20061;-70
2023/08/15 11:46:41;;;;;;;6.68;4.22;;;34.30;26.20;;;;;;5115057;28;20396;-71
2023/08/15 11:49:18;;;;;;;7.75;4.32;;;35.10;26.30;;;;;;5109187;28;20023;-70
2023/08/15 11:51:44;;;;;;;7.32;3.38;;;34.30;25.40;;;;;;5111576;28;20023;-70
2023/08/15 11:54:10;;;;;;;10.10;3.90;;;34.30;24.70;;;;;;5114242;27;20045;-70
2023/08/15 11:56:53;;;;;;;15.02;5.07;;;34.10;26.00;;;;;;5115116;28;20008;-70
2023/08/15 11:59:20;;;;;;;10.20;4.40;;;35.00;26.30;;;;;;5113067;28;20047;-69
2023/08/15 12:01:52;;;;;;;12.88;4.80;;;35.60;25.00;;;;;;5115163;28;20024;-70
2023/08/15 12:04:19;;;;;;;15.85;5.35;;;35.20;25.90;;;;;;5112970;28;20036;-70
2023/08/15 12:06:55;;;;;;;5.05;2.97;;;35.60;25.50;;;;;;5115529;27;20085;-71
2023/08/15 12:09:28;;;;;;;8.20;3.83;;;35.90;22.40;;;;;;5121825;27;20081;-70
2023/08/15 12:11:54;;;;;;;9.13;4.43;;;36.30;25.80;;;;;;5123095;27;20023;-70
2023/08/15 12:14:22;;;;;;;10.82;5.10;;;36.80;25.40;;;;;;5116886;27;20457;-68
2023/08/15 12:16:48;;;;;;;8.73;3.55;;;35.80;20.30;;;;;;5120676;27;20027;-70
2023/08/15 12:19:14;;;;;;;11.07;5.22;;;36.30;21.70;;;;;;5113801;27;20020;-69
2023/08/15 12:21:41;;;;;;;15.00;4.00;;;36.40;21.20;;;;;;5123788;27;20547;-70
2023/08/15 12:24:08;;;;;;;8.05;3.35;;;36.70;21.90;;;;;;5124411;27;20035;-70
2023/08/15 12:26:34;;;;;;;8.77;3.65;;;36.10;21.10;;;;;;5114385;28;20388;-70
2023/08/15 12:28:59;;;;;;;16.58;5.50;;;36.70;22.40;;;;;;5113129;28;20099;-70
2023/08/15 12:31:25;;;;;;;11.68;4.00;;;36.60;21.40;;;;;;5108192;28;20034;-70
2023/08/15 12:33:51;;;;;;;13.38;4.75;;;36.70;21.20;;;;;;5109817;28;20016;-70
2023/08/15 12:36:17;;;;;;;8.77;3.53;;;36.60;20.70;;;;;;5116787;27;20469;-70